createdAt,value
2018-07-15T00:00:00.153Z,1.03
2018-07-15T00:02:28.378Z,0.80
2018-07-15T00:04:56.663Z,1.10
2018-07-15T00:07:24.872Z,0.93
2018-07-15T00:09:53.054Z,1.00
2018-07-15T00:12:21.233Z,1.00
2018-07-15T00:14:49.420Z,1.00
2018-07-15T00:17:17.617Z,0.93
2018-07-15T00:19:45.792Z,1.00
2018-07-15T00:22:13.989Z,1.10
2018-07-15T00:24:42.161Z,1.30
2018-07-15T00:27:10.344Z,1.30
2018-07-15T00:29:38.641Z,1.13
2018-07-15T00:32:07.003Z,1.10
2018-07-15T00:34:35.201Z,1.30
2018-07-15T00:37:03.388Z,1.10
2018-07-15T00:39:31.612Z,1.20
2018-07-15T00:41:59.804Z,1.20
2018-07-15T00:44:27.967Z,1.20
2018-07-15T00:46:56.192Z,1.00
2018-07-15T00:49:24.608Z,1.30
2018-07-15T00:51:53.301Z,1.50
2018-07-15T00:54:21.488Z,1.27
2018-07-15T00:56:49.677Z,1.10
2018-07-15T00:59:17.928Z,1.30
2018-07-15T01:01:46.113Z,1.57
2018-07-15T01:04:14.342Z,1.30
2018-07-15T01:06:42.556Z,1.23
2018-07-15T01:09:11.363Z,1.30
2018-07-15T01:11:39.740Z,1.47
2018-07-15T01:14:08.434Z,1.30
2018-07-15T01:16:37.628Z,1.53
2018-07-15T01:19:05.936Z,1.40
2018-07-15T01:21:34.118Z,1.73
2018-07-15T01:24:02.312Z,1.10
2018-07-15T01:26:31.304Z,1.20
2018-07-15T01:28:59.504Z,1.30
2018-07-15T01:31:27.675Z,1.00
2018-07-15T01:33:55.879Z,1.00
2018-07-15T01:36:24.060Z,1.00
2018-07-15T01:38:52.251Z,1.00
2018-07-15T01:41:20.414Z,1.00
2018-07-15T01:43:48.581Z,1.10
2018-07-15T01:46:16.804Z,1.30
2018-07-15T01:48:44.982Z,1.30
2018-07-15T01:51:13.208Z,1.60
2018-07-15T01:53:41.404Z,1.40
2018-07-15T01:56:09.592Z,1.33
2018-07-15T01:58:37.804Z,1.30
2018-07-15T02:01:05.992Z,1.10
2018-07-15T02:03:34.204Z,1.20
2018-07-15T02:06:02.383Z,1.10
2018-07-15T02:08:30.616Z,1.47
2018-07-15T02:10:58.900Z,1.43
2018-07-15T02:13:27.101Z,1.50
2018-07-15T02:15:55.272Z,1.17
2018-07-15T02:18:23.451Z,1.40
2018-07-15T02:20:51.629Z,1.57
2018-07-15T02:23:19.820Z,1.90
2018-07-15T02:25:48.052Z,1.93
2018-07-15T02:28:16.228Z,2.60
2018-07-15T02:30:44.399Z,1.97
2018-07-15T02:33:12.594Z,2.23
2018-07-15T02:35:40.755Z,2.33
2018-07-15T02:38:08.935Z,1.70
2018-07-15T02:40:37.102Z,1.60
2018-07-15T02:43:05.314Z,1.90
2018-07-15T02:45:33.489Z,2.00
2018-07-15T02:48:01.675Z,1.70
2018-07-15T02:50:29.852Z,1.67
2018-07-15T02:52:58.032Z,1.80
2018-07-15T02:55:26.201Z,1.40
2018-07-15T02:57:54.404Z,1.50
2018-07-15T03:00:23.016Z,1.50
2018-07-15T03:02:51.764Z,1.40
2018-07-15T03:05:19.949Z,1.43
2018-07-15T03:07:48.110Z,1.43
2018-07-15T03:10:16.645Z,1.53
2018-07-15T03:12:44.933Z,1.60
2018-07-15T03:15:13.102Z,1.47
2018-07-15T03:17:41.261Z,1.40
2018-07-15T03:20:09.621Z,1.17
2018-07-15T03:22:37.818Z,1.50
2018-07-15T03:25:06.003Z,1.50
2018-07-15T03:27:34.207Z,2.07
2018-07-15T03:30:02.445Z,1.50
2018-07-15T03:32:30.620Z,1.33
2018-07-15T03:34:58.809Z,1.40
2018-07-15T03:37:26.972Z,1.40
2018-07-15T03:39:55.204Z,1.50
2018-07-15T03:42:23.780Z,1.43
2018-07-15T03:44:51.980Z,1.50
2018-07-15T03:47:20.152Z,1.70
2018-07-15T03:49:48.352Z,1.60
2018-07-15T03:52:16.590Z,1.80
2018-07-15T03:54:44.805Z,1.67
2018-07-15T03:57:12.980Z,2.17
2018-07-15T03:59:41.151Z,1.80
2018-07-15T04:02:09.445Z,1.70
2018-07-15T04:04:37.661Z,1.50
2018-07-15T04:07:05.828Z,1.50
2018-07-15T04:09:34.017Z,1.90
2018-07-15T04:12:02.196Z,1.80
2018-07-15T04:14:30.373Z,2.40
2018-07-15T04:16:58.689Z,1.93
2018-07-15T04:19:26.893Z,2.10
2018-07-15T04:21:55.073Z,2.10
2018-07-15T04:24:23.241Z,1.60
2018-07-15T04:26:52.021Z,1.80
2018-07-15T04:29:20.300Z,1.90
2018-07-15T04:31:48.502Z,1.50
2018-07-15T04:34:16.687Z,1.70
2018-07-15T04:36:44.873Z,1.90
2018-07-15T04:39:13.044Z,1.50
2018-07-15T04:41:42.276Z,1.50
2018-07-15T04:44:10.443Z,1.70
2018-07-15T04:46:38.780Z,1.90
2018-07-15T04:49:06.952Z,1.97
2018-07-15T04:51:35.253Z,1.80
2018-07-15T04:54:03.524Z,1.63
2018-07-15T04:56:31.451Z,1.57
2018-07-15T04:58:59.678Z,1.63
2018-07-15T05:01:27.864Z,1.67
2018-07-15T05:03:56.091Z,1.50
2018-07-15T05:06:24.256Z,1.57
2018-07-15T05:08:52.424Z,2.13
2018-07-15T05:11:20.744Z,1.80
2018-07-15T05:13:48.858Z,1.93
2018-07-15T05:16:17.058Z,1.77
2018-07-15T05:18:45.220Z,2.40
2018-07-15T05:21:13.412Z,2.70
2018-07-15T05:23:41.647Z,2.10
2018-07-15T05:26:09.833Z,2.37
2018-07-15T05:28:38.000Z,2.97
2018-07-15T05:31:06.164Z,2.70
2018-07-15T05:33:34.421Z,2.77
2018-07-15T05:36:02.596Z,1.87
2018-07-15T05:38:30.763Z,2.80
2018-07-15T05:40:59.072Z,2.10
2018-07-15T05:43:27.229Z,1.90
2018-07-15T05:45:55.413Z,2.40
2018-07-15T05:48:23.596Z,2.00
2018-07-15T05:50:51.769Z,2.67
2018-07-15T05:53:19.953Z,3.80
2018-07-15T05:55:48.305Z,3.77
2018-07-15T05:58:16.468Z,3.30
2018-07-15T06:00:44.663Z,4.00
2018-07-15T06:03:12.853Z,2.93
2018-07-15T06:05:41.042Z,2.60
2018-07-15T06:08:09.226Z,3.00
2018-07-15T06:10:37.505Z,2.40
2018-07-15T06:13:05.624Z,3.27
2018-07-15T06:15:33.804Z,2.80
2018-07-15T06:18:02.046Z,2.30
2018-07-15T06:20:30.197Z,4.07
2018-07-15T06:22:58.416Z,3.67
2018-07-15T06:25:26.597Z,2.97
2018-07-15T06:27:54.875Z,2.73
2018-07-15T06:30:23.108Z,3.50
2018-07-15T06:32:51.278Z,5.10
2018-07-15T06:35:19.472Z,4.60
2018-07-15T06:37:47.633Z,4.53
2018-07-15T06:40:15.830Z,4.23
2018-07-15T06:42:44.008Z,4.70
2018-07-15T06:45:12.546Z,5.00
2018-07-15T06:47:40.699Z,4.23
2018-07-15T06:50:08.904Z,4.97
2018-07-15T06:52:37.068Z,5.33
2018-07-15T06:55:05.419Z,5.90
2018-07-15T06:57:33.611Z,4.30
2018-07-15T07:00:01.893Z,4.23
2018-07-15T07:02:30.072Z,5.93
2018-07-15T07:04:58.244Z,6.50
2018-07-15T07:07:26.505Z,5.47
2018-07-15T07:09:54.622Z,5.20
2018-07-15T07:12:22.914Z,4.47
2018-07-15T07:14:51.109Z,4.07
2018-07-15T07:17:19.803Z,4.90
2018-07-15T07:19:47.975Z,5.53
2018-07-15T07:22:16.152Z,5.20
2018-07-15T07:24:44.473Z,5.10
2018-07-15T07:27:12.705Z,5.10
2018-07-15T07:29:40.875Z,5.50
2018-07-15T07:32:09.057Z,4.97
2018-07-15T07:34:37.917Z,4.90
2018-07-15T07:37:06.105Z,5.20
2018-07-15T07:39:34.292Z,5.03
2018-07-15T07:42:02.491Z,5.13
2018-07-15T07:44:30.981Z,5.23
2018-07-15T07:46:59.251Z,4.80
2018-07-15T07:49:27.436Z,4.00
2018-07-15T07:51:55.615Z,4.10
2018-07-15T07:54:23.791Z,4.63
2018-07-15T07:56:52.052Z,4.13
2018-07-15T07:59:20.139Z,4.10
2018-07-15T08:01:48.317Z,3.33
2018-07-15T08:04:16.537Z,3.77
2018-07-15T08:06:44.745Z,4.00
2018-07-15T08:09:12.920Z,3.47
2018-07-15T08:11:42.456Z,3.13
2018-07-15T08:14:10.625Z,3.43
2018-07-15T08:16:38.808Z,3.50
2018-07-15T08:19:07.168Z,3.50
2018-07-15T08:21:35.529Z,3.73
2018-07-15T08:24:03.737Z,3.43
2018-07-15T08:26:31.981Z,3.50
2018-07-15T08:28:59.908Z,3.63
2018-07-15T08:31:28.154Z,3.50
2018-07-15T08:33:56.328Z,3.77
2018-07-15T08:36:24.568Z,3.63
2018-07-15T08:38:52.741Z,3.40
2018-07-15T08:41:20.978Z,3.20
2018-07-15T08:43:49.148Z,3.17
2018-07-15T08:46:17.358Z,3.07
2018-07-15T08:48:45.521Z,2.87
2018-07-15T08:51:13.724Z,2.50
2018-07-15T08:53:41.977Z,2.90
2018-07-15T08:56:09.919Z,2.70
2018-07-15T08:58:38.101Z,2.80
2018-07-15T09:01:06.548Z,2.70
2018-07-15T09:03:34.765Z,2.47
2018-07-15T09:06:03.331Z,3.10
2018-07-15T09:08:31.491Z,3.87
2018-07-15T09:10:59.757Z,3.03
2018-07-15T09:13:27.968Z,3.20
2018-07-15T09:15:56.248Z,3.23
2018-07-15T09:18:24.464Z,3.17
2018-07-15T09:20:52.581Z,3.17
2018-07-15T09:23:20.783Z,4.00
2018-07-15T09:25:49.003Z,3.73
2018-07-15T09:28:17.191Z,3.90
2018-07-15T09:30:45.550Z,4.00
2018-07-15T09:33:14.189Z,3.23
2018-07-15T09:35:42.535Z,3.07
2018-07-15T09:38:10.736Z,3.40
2018-07-15T09:40:38.951Z,3.43
2018-07-15T09:43:07.159Z,3.67
2018-07-15T09:45:35.340Z,2.90
2018-07-15T09:48:03.536Z,2.83
2018-07-15T09:50:31.710Z,2.87
2018-07-15T09:52:59.927Z,2.77
2018-07-15T09:55:28.112Z,2.60
2018-07-15T09:57:56.299Z,3.00
2018-07-15T10:00:29.776Z,2.87
2018-07-15T10:02:58.008Z,3.10
2018-07-15T10:05:26.198Z,2.80
2018-07-15T10:07:54.577Z,3.10
2018-07-15T10:10:22.788Z,2.73
2018-07-15T10:12:50.722Z,2.50
2018-07-15T10:15:18.971Z,3.00
2018-07-15T10:17:47.197Z,2.73
2018-07-15T10:20:15.373Z,2.53
2018-07-15T10:22:43.555Z,2.40
2018-07-15T10:25:11.719Z,2.40
2018-07-15T10:27:40.094Z,2.43
2018-07-15T10:30:08.261Z,2.17
2018-07-15T10:32:36.433Z,2.57
2018-07-15T10:35:04.801Z,2.43
2018-07-15T10:37:33.015Z,2.20
2018-07-15T10:40:01.186Z,2.00
2018-07-15T10:42:29.373Z,1.90
2018-07-15T10:44:57.664Z,1.70
2018-07-15T10:47:26.233Z,1.70
2018-07-15T10:49:54.724Z,1.73
2018-07-15T10:52:23.020Z,1.70
2018-07-15T10:54:51.365Z,1.60
2018-07-15T10:57:19.596Z,1.77
2018-07-15T10:59:47.535Z,1.77
2018-07-15T11:02:16.822Z,2.00
2018-07-15T11:04:45.082Z,1.50
2018-07-15T11:07:13.533Z,1.50
2018-07-15T11:09:41.907Z,1.70
2018-07-15T11:12:10.120Z,1.60
2018-07-15T11:14:38.662Z,1.90
2018-07-15T11:17:07.335Z,1.77
2018-07-15T11:19:37.099Z,2.20
2018-07-15T11:22:05.668Z,1.60
2018-07-15T11:24:33.952Z,1.80
2018-07-15T11:27:02.128Z,1.77
2018-07-15T11:29:30.354Z,1.70
2018-07-15T11:31:58.585Z,1.47
2018-07-15T11:34:26.750Z,1.30
2018-07-15T11:39:28.222Z,1.77
2018-07-15T11:41:56.463Z,1.40
2018-07-15T11:44:24.629Z,1.73
2018-07-15T11:46:52.955Z,2.20
2018-07-15T11:49:21.397Z,2.83
2018-07-15T11:51:49.660Z,2.70
2018-07-15T11:54:17.829Z,2.77
2018-07-15T11:56:46.013Z,5.40
2018-07-15T11:59:14.304Z,2.50
2018-07-15T12:01:42.528Z,2.80
2018-07-15T12:04:10.783Z,2.30
2018-07-15T12:06:40.013Z,2.23
2018-07-15T12:09:08.261Z,2.37
2018-07-15T12:11:36.885Z,2.30
2018-07-15T12:14:05.077Z,2.23
2018-07-15T12:16:33.396Z,2.30
2018-07-15T12:19:01.572Z,2.20
2018-07-15T12:21:29.833Z,2.30
2018-07-15T12:23:58.017Z,2.00
2018-07-15T12:26:26.198Z,2.13
2018-07-15T12:28:54.398Z,1.90
2018-07-15T12:31:22.760Z,2.00
2018-07-15T12:33:51.028Z,2.53
2018-07-15T12:36:19.207Z,7.20
2018-07-15T12:38:47.532Z,4.77
2018-07-15T12:41:16.347Z,3.00
2018-07-15T12:43:44.792Z,2.70
2018-07-15T12:46:12.956Z,2.60
2018-07-15T12:48:41.128Z,4.80
2018-07-15T12:51:09.304Z,5.50
2018-07-15T12:53:37.480Z,3.40
2018-07-15T12:56:05.753Z,2.30
2018-07-15T12:58:33.949Z,2.20
2018-07-15T13:01:02.130Z,6.23
2018-07-15T13:03:30.368Z,5.90
2018-07-15T13:05:58.635Z,5.37
2018-07-15T13:08:26.946Z,4.00
2018-07-15T13:10:55.116Z,3.57
2018-07-15T13:13:23.426Z,4.60
2018-07-15T13:15:51.584Z,3.67
2018-07-15T13:18:20.101Z,3.40
2018-07-15T13:20:48.296Z,4.37
2018-07-15T13:23:16.496Z,3.43
2018-07-15T13:25:44.660Z,4.93
2018-07-15T13:28:12.876Z,4.97
2018-07-15T13:30:41.053Z,3.80
2018-07-15T13:33:09.370Z,3.30
2018-07-15T13:35:37.572Z,4.13
2018-07-15T13:38:05.784Z,12.57
2018-07-15T13:40:33.952Z,6.23
2018-07-15T13:43:02.128Z,4.73
2018-07-15T13:45:30.388Z,16.23
2018-07-15T13:47:59.171Z,10.37
2018-07-15T13:50:27.387Z,5.43
2018-07-15T13:52:55.559Z,4.00
2018-07-15T13:55:23.761Z,3.53
2018-07-15T13:57:51.945Z,2.70
2018-07-15T14:00:24.680Z,2.67
2018-07-15T14:02:59.828Z,2.13
2018-07-15T14:05:32.131Z,1.93
2018-07-15T14:08:05.039Z,2.40
2018-07-15T14:10:43.572Z,1.93
2018-07-15T14:13:17.538Z,2.07
2018-07-15T14:15:54.766Z,1.93
2018-07-15T14:18:28.944Z,1.70
2018-07-15T14:21:00.230Z,1.60
2018-07-15T14:23:33.945Z,1.90
2018-07-15T14:26:08.316Z,1.53
2018-07-15T14:28:46.231Z,1.70
2018-07-15T14:31:18.438Z,1.70
2018-07-15T14:33:46.609Z,1.77
2018-07-15T14:36:14.785Z,1.60
2018-07-15T14:38:42.952Z,1.40
2018-07-15T14:41:11.172Z,1.30
2018-07-15T14:43:39.409Z,1.47
2018-07-15T14:46:07.596Z,1.40
2018-07-15T14:48:36.251Z,1.90
2018-07-15T14:51:04.678Z,2.10
2018-07-15T14:53:32.860Z,1.90
2018-07-15T14:56:01.099Z,3.00
2018-07-15T14:58:29.404Z,3.93
2018-07-15T15:00:57.764Z,3.60
2018-07-15T15:03:25.955Z,2.67
2018-07-15T15:05:54.130Z,2.10
2018-07-15T15:08:22.537Z,1.83
2018-07-15T15:10:50.768Z,1.70
2018-07-15T15:13:19.045Z,1.50
2018-07-15T15:15:47.183Z,1.90
2018-07-15T15:18:20.860Z,1.90
2018-07-15T15:20:52.764Z,1.63
2018-07-15T15:23:21.212Z,1.10
2018-07-15T15:25:50.143Z,1.30
2018-07-15T15:28:18.397Z,1.60
2018-07-15T15:30:46.816Z,1.60
2018-07-15T15:33:15.461Z,1.30
2018-07-15T15:35:49.200Z,1.40
2018-07-15T15:38:21.270Z,1.50
2018-07-15T15:40:53.829Z,1.30
2018-07-15T15:43:22.281Z,1.30
2018-07-15T15:45:51.127Z,1.20
2018-07-15T15:48:20.093Z,1.50
2018-07-15T15:50:49.057Z,1.70
2018-07-15T15:53:23.895Z,1.57
2018-07-15T15:55:57.795Z,1.70
2018-07-15T15:58:31.020Z,1.40
2018-07-15T16:00:59.199Z,1.40
2018-07-15T16:03:27.892Z,1.27
2018-07-15T16:06:00.143Z,1.30
2018-07-15T16:08:32.294Z,1.80
2018-07-15T16:11:05.629Z,1.77
2018-07-15T16:13:39.660Z,1.70
2018-07-15T16:16:07.841Z,1.20
2018-07-15T16:18:36.108Z,1.40
2018-07-15T16:21:04.288Z,1.20
2018-07-15T16:23:32.620Z,1.50
2018-07-15T16:26:01.751Z,1.70
2018-07-15T16:28:30.304Z,1.30
2018-07-15T16:30:58.471Z,1.40
2018-07-15T16:33:26.776Z,1.40
2018-07-15T16:35:55.038Z,1.67
2018-07-15T16:41:16.036Z,1.40
2018-07-15T16:43:44.220Z,1.50
2018-07-15T16:46:12.448Z,1.50
2018-07-15T16:48:40.639Z,1.47
2018-07-15T16:51:09.055Z,1.37
2018-07-15T16:53:38.486Z,1.40
2018-07-15T16:56:07.217Z,1.37
2018-07-15T16:58:35.489Z,1.30
2018-07-15T17:01:03.718Z,1.50
2018-07-15T17:03:32.275Z,1.30
2018-07-15T17:06:00.577Z,1.10
2018-07-15T17:08:28.802Z,1.03
2018-07-15T17:10:57.407Z,1.10
2018-07-15T17:13:25.598Z,1.20
2018-07-15T17:15:53.772Z,1.50
2018-07-15T17:18:21.996Z,1.37
2018-07-15T17:20:50.209Z,1.13
2018-07-15T17:23:18.396Z,1.00
2018-07-15T17:25:46.697Z,0.90
2018-07-15T17:28:15.161Z,0.90
2018-07-15T17:30:43.434Z,1.10
2018-07-15T17:33:11.589Z,1.23
2018-07-15T17:35:39.766Z,1.33
2018-07-15T17:38:08.775Z,1.30
2018-07-15T17:40:37.151Z,1.17
2018-07-15T17:43:05.310Z,1.33
2018-07-15T17:45:33.730Z,1.20
2018-07-15T17:48:01.973Z,1.33
2018-07-15T17:50:30.177Z,1.10
2018-07-15T17:52:58.414Z,1.20
2018-07-15T17:55:26.707Z,1.23
2018-07-15T17:57:54.902Z,1.10
2018-07-15T18:00:23.155Z,1.10
2018-07-15T18:02:51.371Z,1.30
2018-07-15T18:05:19.584Z,1.00
2018-07-15T18:07:47.765Z,1.30
2018-07-15T18:10:15.996Z,1.17
2018-07-15T18:12:44.317Z,1.40
2018-07-15T18:15:12.540Z,1.17
2018-07-15T18:17:40.810Z,1.33
2018-07-15T18:20:09.151Z,1.00
2018-07-15T18:22:37.384Z,1.00
2018-07-15T18:25:05.665Z,0.90
2018-07-15T18:27:33.926Z,1.00
2018-07-15T18:30:02.113Z,1.10
2018-07-15T18:32:30.316Z,1.10
2018-07-15T18:34:58.541Z,1.00
2018-07-15T18:37:26.753Z,1.00
2018-07-15T18:39:55.004Z,1.00
2018-07-15T18:42:23.221Z,1.20
2018-07-15T18:44:51.539Z,1.00
2018-07-15T18:47:19.672Z,0.90
2018-07-15T18:49:47.993Z,0.80
2018-07-15T18:52:16.216Z,0.90
2018-07-15T18:54:44.901Z,1.00
2018-07-15T18:57:13.335Z,1.00
2018-07-15T18:59:41.614Z,0.80
2018-07-15T19:02:10.131Z,0.70
2018-07-15T19:04:38.324Z,1.00
2018-07-15T19:07:06.732Z,0.90
2018-07-15T19:09:35.370Z,0.80
2018-07-15T19:12:04.037Z,1.00
2018-07-15T19:14:32.330Z,0.90
2018-07-15T19:17:00.577Z,1.00
2018-07-15T19:19:28.905Z,0.73
2018-07-15T19:21:57.147Z,1.00
2018-07-15T19:24:25.381Z,0.80
2018-07-15T19:26:53.584Z,0.80
2018-07-15T19:29:21.805Z,0.70
2018-07-15T19:31:50.009Z,0.87
2018-07-15T19:34:18.836Z,0.70
2018-07-15T19:36:47.308Z,0.67
2018-07-15T19:39:15.492Z,0.70
2018-07-15T19:41:43.906Z,0.60
2018-07-15T19:44:12.682Z,0.70
2018-07-15T19:46:41.006Z,0.63
2018-07-15T19:49:09.979Z,0.60
2018-07-15T19:51:38.666Z,0.70
2018-07-15T19:54:07.084Z,0.60
2018-07-15T19:56:35.402Z,0.60
2018-07-15T19:59:03.778Z,0.70
2018-07-15T20:01:33.119Z,0.77
2018-07-15T20:04:01.864Z,0.60
2018-07-15T20:06:30.118Z,0.40
2018-07-15T20:08:58.329Z,0.70
2018-07-15T20:11:27.005Z,0.90
2018-07-15T20:13:55.200Z,0.60
2018-07-15T20:16:23.419Z,0.60
2018-07-15T20:18:51.625Z,0.83
2018-07-15T20:21:25.749Z,0.70
2018-07-15T20:23:54.715Z,1.07
2018-07-15T20:26:22.959Z,1.03
2018-07-15T20:29:00.377Z,0.70
2018-07-15T20:31:28.650Z,0.90
2018-07-15T20:33:58.890Z,0.80
2018-07-15T20:36:27.082Z,0.80
2018-07-15T20:38:57.555Z,0.80
2018-07-15T20:41:25.956Z,0.70
2018-07-15T20:43:54.247Z,0.77
2018-07-15T20:46:23.531Z,0.70
2018-07-15T20:48:52.160Z,0.50
2018-07-15T20:51:20.627Z,0.70
2018-07-15T20:53:49.152Z,0.60
2018-07-15T20:56:18.791Z,0.60
2018-07-15T20:58:49.377Z,0.50
2018-07-15T21:01:18.785Z,0.50
2018-07-15T21:03:47.065Z,0.50
2018-07-15T21:06:15.260Z,0.47
2018-07-15T21:08:43.446Z,0.60
2018-07-15T21:13:33.775Z,0.50
2018-07-15T21:16:01.974Z,0.60
2018-07-15T21:18:30.162Z,0.50
2018-07-15T21:20:58.355Z,0.60
2018-07-15T21:23:26.315Z,0.50
2018-07-15T21:25:54.301Z,0.60
2018-07-15T21:28:22.235Z,0.60
2018-07-15T21:30:55.996Z,0.57
2018-07-15T21:33:24.174Z,0.50
2018-07-15T21:35:52.388Z,0.50
2018-07-15T21:38:20.585Z,0.67
2018-07-15T21:40:48.808Z,0.70
2018-07-15T21:43:16.972Z,0.80
2018-07-15T21:45:45.162Z,0.90
2018-07-15T21:48:13.417Z,0.87
2018-07-15T21:50:41.588Z,1.00
2018-07-15T21:53:09.772Z,0.80
2018-07-15T21:55:38.065Z,0.70
2018-07-15T21:58:06.248Z,0.60
2018-07-15T22:00:34.517Z,0.70
2018-07-15T22:03:02.734Z,0.70
2018-07-15T22:05:32.360Z,0.60
2018-07-15T22:10:16.563Z,0.60
2018-07-15T22:12:44.947Z,0.40
2018-07-15T22:15:13.309Z,0.50
2018-07-15T22:17:41.573Z,0.50
2018-07-15T22:20:09.820Z,0.53
2018-07-15T22:22:37.987Z,0.50
2018-07-15T22:25:06.633Z,0.60
2018-07-15T22:27:35.111Z,0.60
2018-07-15T22:30:03.354Z,0.60
2018-07-15T22:32:31.624Z,0.60
2018-07-15T22:34:59.892Z,0.63
2018-07-15T22:37:28.176Z,0.60
2018-07-15T22:39:56.456Z,0.30
2018-07-15T22:42:24.854Z,0.40
2018-07-15T22:44:53.093Z,0.50
2018-07-15T22:47:21.900Z,0.30
2018-07-15T22:49:50.164Z,0.60
2018-07-15T22:52:18.459Z,0.40
2018-07-15T22:54:46.711Z,0.63
2018-07-15T22:57:14.908Z,0.60
2018-07-15T22:59:43.165Z,0.40
2018-07-15T23:02:11.623Z,0.60
2018-07-15T23:05:51.469Z,0.43
2018-07-15T23:08:19.958Z,0.60
2018-07-15T23:10:48.153Z,0.60
2018-07-15T23:13:16.912Z,0.70
2018-07-15T23:15:45.001Z,0.53
2018-07-15T23:18:12.979Z,0.60
2018-07-15T23:20:42.130Z,0.60
2018-07-15T23:23:10.840Z,0.60
2018-07-15T23:25:39.077Z,0.50
2018-07-15T23:28:08.419Z,0.50
2018-07-15T23:30:37.406Z,0.53
2018-07-15T23:33:05.990Z,0.50
2018-07-15T23:35:34.246Z,0.60
2018-07-15T23:38:02.827Z,0.50
2018-07-15T23:40:31.148Z,0.50
2018-07-15T23:42:59.914Z,0.43
2018-07-15T23:45:29.099Z,0.40
2018-07-15T23:47:57.499Z,0.60
2018-07-15T23:50:25.789Z,0.60
2018-07-15T23:52:54.151Z,0.50
2018-07-15T23:55:22.640Z,0.50
2018-07-15T23:57:50.837Z,0.57
